This is the latest recevied weather packets stored in our database for station/object DL9LA-13. If no packets are shown the sender has not sent any weather packets the latest 10 day(s).
| Time | Temp. | Humidity | Pressure | Rain* | Wind** | Luminosity | Snow |
|---|---|---|---|---|---|---|---|
| 1777977325 | 24.44° C | 35% | 962 hPa | - | - | - | - |
| 1777976118 | 25° C | 37% | 962 hPa | - | - | - | - |
| 1777975514 | 25° C | 36% | 963 hPa | - | - | - | - |
| 1777972496 | 24.44° C | 42% | 963 hPa | - | - | - | - |
| 1777971892 | 23.89° C | 44% | 963 hPa | - | - | - | - |
| 1777968270 | 23.33° C | 47% | 963 hPa | - | - | - | - |
| 1777958008 | 34.44° C | 26% | 964 hPa | - | - | - | - |
| 1777957405 | 30° C | 32% | 964 hPa | - | - | - | - |
| 1777955594 | 16.11° C | 73% | 964 hPa | - | - | - | - |
| 1777954386 | 15° C | 81% | 964 hPa | - | - | - | - |
| 1777953783 | 14.44° C | 83% | 964 hPa | - | - | - | - |
| 1777953179 | 15° C | 82% | 965 hPa | - | - | - | - |
| 1777941106 | 18.33° C | 57% | 965 hPa | - | - | - | - |
| 1777939295 | 18.33° C | 58% | 965 hPa | - | - | - | - |
| 1777934466 | 20° C | 44% | 966 hPa | - | - | - | - |
| 1777933863 | 20° C | 43% | 966 hPa | - | - | - | - |
| 1777933259 | 20° C | 44% | 966 hPa | - | - | - | - |
| 1777930845 | 18.89° C | 46% | 966 hPa | - | - | - | - |
| 1777927223 | 20° C | 42% | 966 hPa | - | - | - | - |
| 1777917564 | 23.33° C | 36% | 966 hPa | - | - | - | - |
| 1777916961 | 23.33° C | 36% | 965 hPa | - | - | - | - |
| 1777913942 | 23.89° C | 35% | 966 hPa | - | - | - | - |
| 1777913339 | 23.89° C | 35% | 966 hPa | - | - | - | - |
| 1777911528 | 24.44° C | 32% | 966 hPa | - | - | - | - |
| 1777910924 | 25° C | 32% | 966 hPa | - | - | - | - |
* Rain since midnight (hover to see other rain measurements)
** Current wind speed in m/s (hover to see current wind gust speed)